createdAt,value
2022-12-14T00:02:10.392Z,18.90
2022-12-14T00:04:39.219Z,18.10
2022-12-14T00:07:07.432Z,19.00
2022-12-14T00:09:36.463Z,18.10
2022-12-14T00:12:05.197Z,19.50
2022-12-14T00:14:33.611Z,21.80
2022-12-14T00:17:01.942Z,20.20
2022-12-14T00:19:30.015Z,19.80
2022-12-14T00:21:58.354Z,18.90
2022-12-14T00:24:26.471Z,20.60
2022-12-14T00:26:54.561Z,19.60
2022-12-14T00:29:22.823Z,19.90
2022-12-14T00:31:51.209Z,20.10
2022-12-14T00:34:19.322Z,21.10
2022-12-14T00:36:47.504Z,19.50
2022-12-14T00:39:15.878Z,19.50
2022-12-14T00:41:44.037Z,18.50
2022-12-14T00:44:12.361Z,18.90
2022-12-14T00:46:40.608Z,19.20
2022-12-14T00:49:11.216Z,18.80
2022-12-14T00:51:39.440Z,20.60
2022-12-14T00:54:07.562Z,18.10
2022-12-14T00:56:35.698Z,18.20
2022-12-14T00:59:04.463Z,19.90
2022-12-14T01:01:32.928Z,21.00
2022-12-14T01:04:20.041Z,19.70
2022-12-14T01:06:50.521Z,17.70
2022-12-14T01:09:20.374Z,20.20
2022-12-14T01:11:48.994Z,19.50
2022-12-14T01:14:19.442Z,19.30
2022-12-14T01:16:47.753Z,19.30
2022-12-14T01:19:16.170Z,20.40
2022-12-14T01:21:44.767Z,20.70
2022-12-14T01:24:13.208Z,20.60
2022-12-14T01:26:41.400Z,22.50
2022-12-14T01:29:11.522Z,19.50
2022-12-14T01:31:39.884Z,18.80
2022-12-14T01:34:08.470Z,17.70
2022-12-14T01:36:37.421Z,19.40
2022-12-14T01:39:13.907Z,18.30
2022-12-14T01:41:49.447Z,19.60
2022-12-14T01:44:18.192Z,18.70
2022-12-14T01:46:50.954Z,18.60
2022-12-14T01:49:22.581Z,18.00
2022-12-14T01:51:56.633Z,17.30
2022-12-14T01:54:28.353Z,20.10
2022-12-14T01:56:57.215Z,18.20
2022-12-14T01:59:32.687Z,20.60
2022-12-14T02:03:32.285Z,21.40
2022-12-14T02:06:12.877Z,21.80
2022-12-14T02:08:44.190Z,21.90
2022-12-14T02:11:12.464Z,20.70
2022-12-14T02:13:42.783Z,22.10
2022-12-14T02:16:11.161Z,22.30
2022-12-14T02:18:39.477Z,22.40
2022-12-14T02:21:32.503Z,21.50
2022-12-14T02:24:19.353Z,20.00
2022-12-14T02:27:09.504Z,19.90
2022-12-14T02:29:59.168Z,20.90
2022-12-14T02:32:34.529Z,20.00
2022-12-14T02:35:19.789Z,20.40
2022-12-14T02:38:01.118Z,17.50
2022-12-14T02:40:41.607Z,18.00
2022-12-14T02:43:49.119Z,18.60
2022-12-14T02:46:50.637Z,17.60
2022-12-14T02:49:49.181Z,19.90
2022-12-14T02:52:45.449Z,21.20
2022-12-14T02:55:22.821Z,19.70
2022-12-14T02:57:58.858Z,23.70
2022-12-14T03:00:29.395Z,22.20
2022-12-14T03:02:58.681Z,22.50
2022-12-14T03:05:27.214Z,19.70
2022-12-14T03:08:01.589Z,20.50
2022-12-14T03:10:43.091Z,18.40
2022-12-14T03:13:32.697Z,22.50
2022-12-14T03:16:10.230Z,22.40
2022-12-14T03:18:44.579Z,20.30
2022-12-14T03:21:17.121Z,21.40
2022-12-14T03:23:49.663Z,20.20
2022-12-14T03:26:34.199Z,21.30
2022-12-14T03:29:22.128Z,23.30
2022-12-14T03:32:03.908Z,21.60
2022-12-14T03:34:37.646Z,22.10
2022-12-14T03:37:14.899Z,22.50
2022-12-14T03:39:45.869Z,22.10
2022-12-14T03:42:19.952Z,23.00
2022-12-14T03:45:09.690Z,22.50
2022-12-14T03:48:12.200Z,23.90
2022-12-14T03:51:00.436Z,27.20
2022-12-14T03:53:40.299Z,31.60
2022-12-14T03:56:20.284Z,25.70
2022-12-14T03:59:07.210Z,24.40
2022-12-14T04:01:35.711Z,23.50
2022-12-14T04:04:11.062Z,23.40
2022-12-14T04:06:52.366Z,23.30
2022-12-14T04:09:46.952Z,22.70
2022-12-14T04:12:51.820Z,20.60
2022-12-14T04:15:50.362Z,22.70
2022-12-14T04:19:00.228Z,21.80
2022-12-14T04:21:41.050Z,21.70
2022-12-14T04:24:37.971Z,23.60
2022-12-14T04:27:22.834Z,23.50
2022-12-14T04:29:59.684Z,22.40
2022-12-14T04:32:53.603Z,24.80
2022-12-14T04:35:24.867Z,20.90
2022-12-14T04:37:59.653Z,22.40
2022-12-14T04:40:37.314Z,22.90
2022-12-14T04:43:10.978Z,21.50
2022-12-14T04:45:49.101Z,22.30
2022-12-14T04:48:33.767Z,22.20
2022-12-14T04:51:30.335Z,22.00
2022-12-14T04:54:11.207Z,22.70
2022-12-14T04:57:02.591Z,21.40
2022-12-14T04:59:32.243Z,22.80
2022-12-14T05:02:10.129Z,23.40
2022-12-14T05:05:19.106Z,22.90
2022-12-14T05:07:55.957Z,24.30
2022-12-14T05:10:39.891Z,24.20
2022-12-14T05:13:30.889Z,25.10
2022-12-14T05:18:27.558Z,21.60
2022-12-14T05:20:55.734Z,23.90
2022-12-14T05:23:23.765Z,24.60
2022-12-14T05:25:51.844Z,24.40
2022-12-14T05:28:20.134Z,24.60
2022-12-14T05:30:48.972Z,25.10
2022-12-14T05:33:19.950Z,25.90
2022-12-14T05:35:48.202Z,31.60
2022-12-14T05:38:16.394Z,33.10
2022-12-14T05:40:44.446Z,36.80
2022-12-14T05:43:12.647Z,30.20
2022-12-14T05:45:41.019Z,28.80
2022-12-14T05:48:09.074Z,30.50
2022-12-14T05:50:37.256Z,29.60
2022-12-14T05:53:08.776Z,25.00
2022-12-14T05:55:36.977Z,24.30
2022-12-14T05:58:05.222Z,22.10
2022-12-14T06:00:33.437Z,22.00
2022-12-14T06:03:01.668Z,22.20
2022-12-14T06:05:30.665Z,23.90
2022-12-14T06:07:59.045Z,26.30
2022-12-14T06:10:27.181Z,23.00
2022-12-14T06:12:57.397Z,23.60
2022-12-14T06:15:30.736Z,24.10
2022-12-14T06:18:02.109Z,24.10
2022-12-14T06:20:30.464Z,22.90
2022-12-14T06:22:58.568Z,21.90
2022-12-14T06:25:26.691Z,21.60
2022-12-14T06:27:54.919Z,21.80
2022-12-14T06:30:23.003Z,23.40
2022-12-14T06:32:51.794Z,22.10
2022-12-14T06:35:20.032Z,19.60
2022-12-14T06:37:49.115Z,19.90
2022-12-14T06:40:17.551Z,20.40
2022-12-14T06:42:47.527Z,21.20
2022-12-14T06:45:15.635Z,20.00
2022-12-14T06:47:43.991Z,21.10
2022-12-14T06:50:12.699Z,21.40
2022-12-14T06:52:40.820Z,22.60
2022-12-14T06:55:09.295Z,23.00
2022-12-14T06:57:37.615Z,19.70
2022-12-14T07:00:06.305Z,20.30
2022-12-14T07:02:34.584Z,20.60
2022-12-14T07:05:03.062Z,24.60
2022-12-14T07:07:35.716Z,23.70
2022-12-14T07:10:04.676Z,22.50
2022-12-14T07:12:32.905Z,24.30
2022-12-14T07:15:01.345Z,23.10
2022-12-14T07:17:29.475Z,22.20
2022-12-14T07:19:57.725Z,20.80
2022-12-14T07:22:26.022Z,22.20
2022-12-14T07:24:54.141Z,26.60
2022-12-14T07:27:24.026Z,23.80
2022-12-14T07:29:53.629Z,24.70
2022-12-14T07:32:22.079Z,29.30
2022-12-14T07:34:50.407Z,23.10
2022-12-14T07:37:18.938Z,23.40
2022-12-14T07:39:47.032Z,29.70
2022-12-14T07:42:15.128Z,23.30
2022-12-14T07:44:48.791Z,23.60
2022-12-14T07:47:17.009Z,21.30
2022-12-14T07:49:48.143Z,27.50
2022-12-14T07:52:17.029Z,29.60
2022-12-14T07:54:45.294Z,30.70
2022-12-14T07:57:13.364Z,32.50
2022-12-14T07:59:41.733Z,28.20
2022-12-14T08:02:12.086Z,22.20
2022-12-14T08:04:40.523Z,23.90
2022-12-14T08:07:09.097Z,21.80
2022-12-14T08:09:37.484Z,24.00
2022-12-14T08:12:05.560Z,23.30
2022-12-14T08:14:33.930Z,20.60
2022-12-14T08:17:02.088Z,23.20
2022-12-14T08:19:30.239Z,23.30
2022-12-14T08:21:58.717Z,20.50
2022-12-14T08:24:27.232Z,23.50
2022-12-14T08:26:55.312Z,25.50
2022-12-14T08:29:23.644Z,24.00
2022-12-14T08:31:55.894Z,24.90
2022-12-14T08:34:24.088Z,25.40
2022-12-14T08:36:52.598Z,25.80
2022-12-14T08:39:21.301Z,25.90
2022-12-14T08:41:49.417Z,26.10
2022-12-14T08:44:17.805Z,24.20
2022-12-14T08:46:48.873Z,26.20
2022-12-14T08:51:45.254Z,26.80
2022-12-14T08:54:13.623Z,28.50
2022-12-14T08:56:41.767Z,25.80
2022-12-14T08:59:19.793Z,26.40
2022-12-14T09:01:58.829Z,28.30
2022-12-14T09:04:27.923Z,25.60
2022-12-14T09:06:56.551Z,26.40
2022-12-14T09:09:24.843Z,27.90
2022-12-14T09:11:53.338Z,28.60
2022-12-14T09:14:21.477Z,28.40
2022-12-14T09:16:49.868Z,28.80
2022-12-14T09:19:18.340Z,28.40
2022-12-14T09:21:46.521Z,29.30
2022-12-14T09:24:14.712Z,29.50
2022-12-14T09:26:43.218Z,31.00
2022-12-14T09:29:17.018Z,27.10
2022-12-14T09:31:47.803Z,28.70
2022-12-14T09:34:15.950Z,31.20
2022-12-14T09:36:44.123Z,29.30
2022-12-14T09:39:15.149Z,28.90
2022-12-14T09:44:48.251Z,29.00
2022-12-14T09:47:35.697Z,32.50
2022-12-14T09:50:10.598Z,29.20
2022-12-14T09:52:45.085Z,27.60
2022-12-14T09:55:37.336Z,29.20
2022-12-14T09:58:07.847Z,29.90
2022-12-14T10:00:49.702Z,26.70
2022-12-14T10:03:47.892Z,29.50
2022-12-14T10:06:47.679Z,29.40
2022-12-14T10:09:38.817Z,27.20
2022-12-14T10:12:51.575Z,24.90
2022-12-14T10:15:48.684Z,25.90
2022-12-14T10:18:59.041Z,28.40
2022-12-14T10:21:41.464Z,31.60
2022-12-14T10:24:18.943Z,26.40
2022-12-14T10:26:51.886Z,24.50
2022-12-14T10:29:28.863Z,25.00
2022-12-14T10:32:05.483Z,25.70
2022-12-14T10:34:35.138Z,26.50
2022-12-14T10:37:26.197Z,27.10
2022-12-14T10:40:27.418Z,24.40
2022-12-14T10:43:24.870Z,27.20
2022-12-14T10:46:23.668Z,28.00
2022-12-14T10:48:55.228Z,27.10
2022-12-14T10:51:42.183Z,23.40
2022-12-14T10:54:16.039Z,22.00
2022-12-14T10:56:49.814Z,25.90
2022-12-14T10:59:18.509Z,25.30
2022-12-14T11:01:50.098Z,21.70
2022-12-14T11:04:30.492Z,25.80
2022-12-14T11:07:02.510Z,29.20
2022-12-14T11:09:31.831Z,26.50
2022-12-14T11:12:17.443Z,24.60
2022-12-14T11:15:06.607Z,25.00
2022-12-14T11:17:39.236Z,22.50
2022-12-14T11:20:22.829Z,24.50
2022-12-14T11:23:05.483Z,23.70
2022-12-14T11:25:55.432Z,23.50
2022-12-14T11:28:50.125Z,24.60
2022-12-14T11:31:32.249Z,23.30
2022-12-14T11:34:40.828Z,22.80
2022-12-14T11:37:21.080Z,21.40
2022-12-14T11:39:59.344Z,23.10
2022-12-14T11:42:29.134Z,24.50
2022-12-14T11:45:26.230Z,26.20
2022-12-14T11:48:16.074Z,22.90
2022-12-14T11:50:46.678Z,21.70
2022-12-14T11:53:18.389Z,22.10
2022-12-14T11:55:58.981Z,21.40
2022-12-14T11:58:37.672Z,22.40
2022-12-14T12:01:12.130Z,22.50
2022-12-14T12:03:48.028Z,21.80
2022-12-14T12:06:22.779Z,25.20
2022-12-14T12:09:00.386Z,25.50
2022-12-14T12:11:31.522Z,27.20
2022-12-14T12:14:03.781Z,23.10
2022-12-14T12:16:33.326Z,22.40
2022-12-14T12:19:12.896Z,24.30
2022-12-14T12:21:44.978Z,24.20
2022-12-14T12:24:27.607Z,27.90
2022-12-14T12:26:58.876Z,27.40
2022-12-14T12:29:30.350Z,24.50
2022-12-14T12:32:06.227Z,23.40
2022-12-14T12:34:42.059Z,20.70
2022-12-14T12:37:31.277Z,22.10
2022-12-14T12:40:04.849Z,21.50
2022-12-14T12:42:41.562Z,19.10
2022-12-14T12:45:21.674Z,20.70
2022-12-14T12:47:53.485Z,18.40
2022-12-14T12:50:25.438Z,20.10
2022-12-14T12:52:59.239Z,21.80
2022-12-14T12:55:35.941Z,22.60
2022-12-14T12:58:09.974Z,21.50
2022-12-14T13:00:40.732Z,21.70
2022-12-14T13:03:18.924Z,22.40
2022-12-14T13:05:49.074Z,22.40
2022-12-14T13:08:31.638Z,21.70
2022-12-14T13:13:55.830Z,21.60
2022-12-14T13:16:35.167Z,21.90
2022-12-14T13:22:12.101Z,22.90
2022-12-14T13:24:46.317Z,22.30
2022-12-14T13:27:49.495Z,20.70
2022-12-14T13:31:05.703Z,20.80
2022-12-14T13:33:50.889Z,24.80
2022-12-14T13:36:28.758Z,23.20
2022-12-14T13:39:28.438Z,23.10
2022-12-14T13:42:20.996Z,25.40
2022-12-14T13:44:58.163Z,24.70
2022-12-14T13:47:49.368Z,23.00
2022-12-14T13:53:42.414Z,25.30
2022-12-14T13:56:27.780Z,22.90
2022-12-14T13:59:04.981Z,23.00
2022-12-14T14:01:48.404Z,22.20
2022-12-14T14:04:23.139Z,23.10
2022-12-14T14:06:53.983Z,25.30
2022-12-14T14:09:31.468Z,23.50
2022-12-14T14:12:04.083Z,24.00
2022-12-14T14:14:40.411Z,24.10
2022-12-14T14:17:35.756Z,22.50
2022-12-14T14:20:33.817Z,21.70
2022-12-14T14:23:14.375Z,22.90
2022-12-14T14:26:14.723Z,25.20
2022-12-14T14:28:43.353Z,24.40
2022-12-14T14:31:17.824Z,20.20
2022-12-14T14:33:49.883Z,24.90
2022-12-14T14:36:23.847Z,26.50
2022-12-14T14:38:54.692Z,24.60
2022-12-14T14:44:03.033Z,31.20
2022-12-14T14:46:46.057Z,26.00
2022-12-14T14:49:25.900Z,27.90
2022-12-14T14:51:54.234Z,26.70
2022-12-14T14:55:11.033Z,27.40
2022-12-14T14:57:35.888Z,31.50
2022-12-14T15:00:06.466Z,26.80
2022-12-14T15:02:42.316Z,30.00
2022-12-14T15:08:17.894Z,26.00
2022-12-14T15:10:47.796Z,24.70
2022-12-14T15:13:24.446Z,23.70
2022-12-14T15:15:56.391Z,24.10
2022-12-14T15:18:30.908Z,24.60
2022-12-14T15:21:11.771Z,24.20
2022-12-14T15:23:43.189Z,20.70
2022-12-14T15:26:33.614Z,23.00
2022-12-14T15:29:04.758Z,21.00
2022-12-14T15:34:19.300Z,22.80
2022-12-14T15:36:48.500Z,23.50
2022-12-14T15:39:43.745Z,26.10
2022-12-14T15:42:17.350Z,25.80
2022-12-14T15:44:54.139Z,22.80
2022-12-14T15:47:28.637Z,23.20
2022-12-14T15:50:15.755Z,21.40
2022-12-14T15:52:45.636Z,22.00
2022-12-14T15:55:30.723Z,22.30
2022-12-14T15:58:06.744Z,25.40
2022-12-14T16:00:39.648Z,24.20
2022-12-14T16:03:23.952Z,23.70
2022-12-14T16:05:53.420Z,26.00
2022-12-14T16:08:22.714Z,21.80
2022-12-14T16:10:56.773Z,25.50
2022-12-14T16:13:38.479Z,26.10
2022-12-14T16:16:13.580Z,26.40
2022-12-14T16:18:51.231Z,28.70
2022-12-14T16:21:27.334Z,33.20
2022-12-14T16:23:56.565Z,26.50
2022-12-14T16:26:39.759Z,38.40
2022-12-14T16:29:20.076Z,39.50
2022-12-14T16:31:48.934Z,27.60
2022-12-14T16:34:23.554Z,34.40
2022-12-14T16:37:23.263Z,35.20
2022-12-14T16:39:49.679Z,25.20
2022-12-14T16:42:20.794Z,23.40
2022-12-14T16:44:49.210Z,23.50
2022-12-14T16:47:17.234Z,21.40
2022-12-14T16:49:48.456Z,28.40
2022-12-14T16:52:24.026Z,27.40
2022-12-14T16:55:15.252Z,25.90
2022-12-14T16:57:49.626Z,27.90
2022-12-14T17:00:31.530Z,26.30
2022-12-14T17:03:06.393Z,31.40
2022-12-14T17:05:38.417Z,38.60
2022-12-14T17:08:08.111Z,38.50
2022-12-14T17:10:37.537Z,30.80
2022-12-14T17:13:05.635Z,27.30
2022-12-14T17:15:35.504Z,29.70
2022-12-14T17:18:05.309Z,26.50
2022-12-14T17:20:39.499Z,22.90
2022-12-14T17:23:12.479Z,25.90
2022-12-14T17:25:44.680Z,25.60
2022-12-14T17:28:28.695Z,24.10
2022-12-14T17:30:59.826Z,21.70
2022-12-14T17:33:29.896Z,28.90
2022-12-14T17:35:58.514Z,30.30
2022-12-14T17:38:26.707Z,28.70
2022-12-14T17:40:56.147Z,25.30
2022-12-14T17:43:28.253Z,23.30
2022-12-14T17:46:01.039Z,23.50
2022-12-14T17:48:29.893Z,26.50
2022-12-14T17:50:58.299Z,29.60
2022-12-14T17:53:30.539Z,26.30
2022-12-14T17:55:59.201Z,24.50
2022-12-14T17:58:27.326Z,26.10
2022-12-14T18:01:02.155Z,27.30
2022-12-14T18:03:37.794Z,27.00
2022-12-14T18:06:06.462Z,25.00
2022-12-14T18:08:34.861Z,24.60
2022-12-14T18:11:11.842Z,25.80
2022-12-14T18:13:43.435Z,26.40
2022-12-14T18:16:14.215Z,32.80
2022-12-14T18:18:43.089Z,35.70
2022-12-14T18:21:19.335Z,31.00
2022-12-14T18:23:49.778Z,28.10
2022-12-14T18:26:22.687Z,26.20
2022-12-14T18:28:53.197Z,26.00
2022-12-14T18:31:25.046Z,26.30
2022-12-14T18:33:53.363Z,26.00
2022-12-14T18:36:22.598Z,25.40
2022-12-14T18:38:52.249Z,28.70
2022-12-14T18:41:23.721Z,29.20
2022-12-14T18:43:52.450Z,30.30
2022-12-14T18:46:20.750Z,28.50
2022-12-14T18:48:49.112Z,29.00
2022-12-14T18:51:23.790Z,29.20
2022-12-14T18:53:53.206Z,33.20
2022-12-14T18:56:23.347Z,31.20
2022-12-14T18:58:52.112Z,27.50
2022-12-14T19:01:22.557Z,29.40
2022-12-14T19:03:51.257Z,27.30
2022-12-14T19:09:11.040Z,26.30
2022-12-14T19:11:42.222Z,28.30
2022-12-14T19:14:10.757Z,25.30
2022-12-14T19:16:39.554Z,28.90
2022-12-14T19:19:08.304Z,26.40
2022-12-14T19:21:36.469Z,27.70
2022-12-14T19:24:08.469Z,28.40
2022-12-14T19:26:38.597Z,26.40
2022-12-14T19:29:06.873Z,24.60
2022-12-14T19:31:35.169Z,25.30
2022-12-14T19:34:03.559Z,26.00
2022-12-14T19:36:31.727Z,25.40
2022-12-14T19:38:59.943Z,27.40
2022-12-14T19:41:28.806Z,26.00
2022-12-14T19:43:58.014Z,28.90
2022-12-14T19:46:26.492Z,30.40
2022-12-14T19:48:56.976Z,26.50
2022-12-14T19:51:25.243Z,24.70
2022-12-14T19:53:54.715Z,25.10
2022-12-14T19:56:23.292Z,26.60
2022-12-14T19:58:51.605Z,24.70
2022-12-14T20:01:19.939Z,25.50
2022-12-14T20:03:50.064Z,25.50
2022-12-14T20:06:18.374Z,27.10
2022-12-14T20:08:49.332Z,27.30
2022-12-14T20:11:18.397Z,22.60
2022-12-14T20:13:49.357Z,24.10
2022-12-14T20:16:21.468Z,24.70
2022-12-14T20:18:49.882Z,23.00
2022-12-14T20:21:22.145Z,25.20
2022-12-14T20:23:51.165Z,25.10
2022-12-14T20:26:22.097Z,28.30
2022-12-14T20:28:52.477Z,26.80
2022-12-14T20:31:22.465Z,28.20
2022-12-14T20:33:50.999Z,25.60
2022-12-14T20:36:19.718Z,27.60
2022-12-14T20:38:49.333Z,28.20
2022-12-14T20:41:17.820Z,29.00
2022-12-14T20:43:46.071Z,30.00
2022-12-14T20:46:30.953Z,29.60
2022-12-14T20:49:12.283Z,32.60
2022-12-14T20:51:41.407Z,30.50
2022-12-14T20:54:16.818Z,29.60
2022-12-14T20:56:49.459Z,30.90
2022-12-14T20:59:19.180Z,30.80
2022-12-14T21:01:53.471Z,30.50
2022-12-14T21:04:23.617Z,32.50
2022-12-14T21:06:52.101Z,31.20
2022-12-14T21:09:20.287Z,30.30
2022-12-14T21:12:09.861Z,32.10
2022-12-14T21:14:43.646Z,34.20
2022-12-14T21:17:11.730Z,34.40
2022-12-14T21:19:41.024Z,33.30
2022-12-14T21:22:13.018Z,34.60
2022-12-14T21:27:32.563Z,32.20
2022-12-14T21:30:00.961Z,32.20
2022-12-14T21:32:29.433Z,36.00
2022-12-14T21:34:57.904Z,37.60
2022-12-14T21:37:26.275Z,38.00
2022-12-14T21:39:55.714Z,34.30
2022-12-14T21:42:24.868Z,32.50
2022-12-14T21:44:54.171Z,30.00
2022-12-14T21:47:28.141Z,33.80
2022-12-14T21:49:56.778Z,32.00
2022-12-14T21:52:27.553Z,34.30
2022-12-14T21:54:56.067Z,34.80
2022-12-14T21:57:49.783Z,32.30
2022-12-14T22:00:19.564Z,34.10
2022-12-14T22:02:48.432Z,36.60
2022-12-14T22:05:17.285Z,33.80
2022-12-14T22:07:47.718Z,32.50
2022-12-14T22:10:21.251Z,30.20
2022-12-14T22:12:52.671Z,30.90
2022-12-14T22:15:21.230Z,31.90
2022-12-14T22:17:50.417Z,30.70
2022-12-14T22:20:18.818Z,28.20
2022-12-14T22:22:47.445Z,32.00
2022-12-14T22:25:17.929Z,33.60
2022-12-14T22:27:49.687Z,36.60
2022-12-14T22:30:18.846Z,36.00
2022-12-14T22:32:48.119Z,32.60
2022-12-14T22:35:16.310Z,31.90
2022-12-14T22:37:44.989Z,30.90
2022-12-14T22:40:13.431Z,30.50
2022-12-14T22:42:41.481Z,36.10
2022-12-14T22:45:10.045Z,35.10
2022-12-14T22:47:38.305Z,34.70
2022-12-14T22:50:06.886Z,34.90
2022-12-14T22:52:35.239Z,31.60
2022-12-14T22:55:16.638Z,31.70
2022-12-14T23:01:39.932Z,37.70
2022-12-14T23:04:11.662Z,34.60
2022-12-14T23:06:41.261Z,33.10
2022-12-14T23:09:28.154Z,37.50
2022-12-14T23:12:19.675Z,35.20
2022-12-14T23:15:08.228Z,32.20
2022-12-14T23:17:55.558Z,33.80
2022-12-14T23:20:42.684Z,32.90
2022-12-14T23:23:32.535Z,34.80
2022-12-14T23:26:21.794Z,36.30
2022-12-14T23:29:08.790Z,37.10
2022-12-14T23:31:55.854Z,32.70
2022-12-14T23:34:42.533Z,30.70
2022-12-14T23:37:29.412Z,32.90
2022-12-14T23:40:16.204Z,31.60
2022-12-14T23:43:04.505Z,33.80
2022-12-14T23:45:51.563Z,34.80
2022-12-14T23:48:38.504Z,39.70
2022-12-14T23:51:25.331Z,39.80
2022-12-14T23:54:12.257Z,38.20
2022-12-14T23:56:59.184Z,38.00
2022-12-14T23:59:49.735Z,33.30
